createdAt,value
2018-08-03T00:00:22.978Z,62.40
2018-08-03T00:02:51.287Z,62.60
2018-08-03T00:05:19.666Z,62.70
2018-08-03T00:07:48.030Z,62.60
2018-08-03T00:10:16.358Z,62.70
2018-08-03T00:12:44.724Z,62.60
2018-08-03T00:15:13.078Z,63.00
2018-08-03T00:17:41.391Z,63.10
2018-08-03T00:20:09.764Z,63.20
2018-08-03T00:22:38.068Z,62.50
2018-08-03T00:25:06.854Z,63.10
2018-08-03T00:27:35.142Z,63.50
2018-08-03T00:30:04.032Z,63.70
2018-08-03T00:32:32.451Z,63.30
2018-08-03T00:35:00.740Z,63.30
2018-08-03T00:37:29.099Z,63.20
2018-08-03T00:39:57.511Z,63.20
2018-08-03T00:42:25.805Z,63.30
2018-08-03T00:44:54.115Z,64.00
2018-08-03T00:52:18.799Z,64.20
2018-08-03T00:54:47.154Z,63.80
2018-08-03T00:57:16.608Z,63.60
2018-08-03T00:59:44.962Z,63.80
2018-08-03T01:02:13.277Z,64.10
2018-08-03T01:07:09.666Z,63.70
2018-08-03T01:09:38.012Z,63.40
2018-08-03T01:12:06.349Z,62.60
2018-08-03T01:14:34.670Z,61.70
2018-08-03T01:17:03.032Z,61.40
2018-08-03T01:19:31.362Z,61.30
2018-08-03T01:21:59.952Z,60.40
2018-08-03T01:24:28.300Z,60.40
2018-08-03T01:26:56.721Z,60.20
2018-08-03T01:29:25.279Z,60.00
2018-08-03T01:31:53.738Z,59.90
2018-08-03T01:34:22.233Z,59.70
2018-08-03T01:36:50.540Z,59.60
2018-08-03T01:39:18.991Z,59.60
2018-08-03T01:41:47.295Z,59.50
2018-08-03T01:44:15.632Z,59.40
2018-08-03T01:46:43.992Z,59.30
2018-08-03T01:49:12.543Z,59.30
2018-08-03T01:51:40.927Z,59.20
2018-08-03T01:54:09.602Z,59.10
2018-08-03T01:56:37.927Z,59.10
2018-08-03T01:59:06.274Z,59.00
2018-08-03T02:01:34.668Z,59.10
2018-08-03T02:04:03.036Z,58.90
2018-08-03T02:06:31.361Z,58.90
2018-08-03T02:08:59.735Z,58.80
2018-08-03T02:11:28.075Z,58.80
2018-08-03T02:13:56.442Z,58.80
2018-08-03T02:16:24.747Z,58.70
2018-08-03T02:18:53.122Z,58.70
2018-08-03T02:21:21.447Z,58.60
2018-08-03T02:23:49.735Z,58.50
2018-08-03T02:26:18.110Z,58.40
2018-08-03T02:28:46.400Z,58.30
2018-08-03T02:31:14.792Z,58.30
2018-08-03T02:33:43.084Z,58.20
2018-08-03T02:36:11.419Z,58.10
2018-08-03T02:38:39.770Z,57.90
2018-08-03T02:41:08.083Z,58.20
2018-08-03T02:43:36.370Z,58.30
2018-08-03T02:46:04.676Z,58.10
2018-08-03T02:48:32.985Z,58.30
2018-08-03T02:51:01.342Z,58.30
2018-08-03T02:53:29.640Z,58.20
2018-08-03T02:55:58.072Z,58.20
2018-08-03T02:58:26.360Z,57.90
2018-08-03T03:00:54.679Z,58.00
2018-08-03T03:03:23.044Z,58.00
2018-08-03T03:05:51.379Z,57.90
2018-08-03T03:08:19.698Z,58.00
2018-08-03T03:13:16.085Z,58.10
2018-08-03T03:15:44.372Z,58.30
2018-08-03T03:18:12.668Z,57.60
2018-08-03T03:20:40.977Z,58.00
2018-08-03T03:23:09.291Z,57.80
2018-08-03T03:25:37.890Z,57.80
2018-08-03T03:28:06.182Z,57.80
2018-08-03T03:30:34.461Z,57.80
2018-08-03T03:33:02.786Z,57.60
2018-08-03T03:35:31.122Z,57.80
2018-08-03T03:37:59.438Z,57.60
2018-08-03T03:40:27.731Z,58.30
2018-08-03T03:42:56.068Z,57.60
2018-08-03T03:45:24.483Z,57.50
2018-08-03T03:47:52.795Z,57.60
2018-08-03T03:50:21.087Z,57.50
2018-08-03T03:52:49.406Z,57.40
2018-08-03T03:55:17.791Z,57.50
2018-08-03T03:57:46.087Z,57.50
2018-08-03T04:00:14.381Z,57.50
2018-08-03T04:02:42.685Z,57.40
2018-08-03T04:05:11.001Z,57.50
2018-08-03T04:07:39.326Z,58.00
2018-08-03T04:10:07.619Z,57.30
2018-08-03T04:12:35.956Z,57.10
2018-08-03T04:15:04.550Z,57.10
2018-08-03T04:17:32.839Z,56.80
2018-08-03T04:20:01.128Z,56.90
2018-08-03T04:22:29.460Z,56.80
2018-08-03T04:24:57.734Z,57.00
2018-08-03T04:27:26.091Z,56.90
2018-08-03T04:29:54.405Z,57.00
2018-08-03T04:32:22.714Z,57.70
2018-08-03T04:34:51.004Z,57.20
2018-08-03T04:39:47.362Z,57.10
2018-08-03T04:42:15.763Z,57.20
2018-08-03T04:44:44.007Z,57.10
2018-08-03T04:49:40.335Z,56.90
2018-08-03T04:52:08.686Z,56.90
2018-08-03T04:54:37.040Z,56.90
2018-08-03T04:57:05.383Z,56.90
2018-08-03T04:59:33.747Z,57.00
2018-08-03T05:02:02.031Z,57.30
2018-08-03T05:04:30.318Z,57.20
2018-08-03T05:06:58.686Z,57.00
2018-08-03T05:09:26.991Z,57.10
2018-08-03T05:11:56.313Z,57.30
2018-08-03T05:14:24.611Z,57.00
2018-08-03T05:16:52.916Z,57.10
2018-08-03T05:19:21.370Z,57.20
2018-08-03T05:21:49.756Z,57.00
2018-08-03T05:24:18.208Z,57.10
2018-08-03T05:26:46.498Z,56.90
2018-08-03T05:29:14.828Z,57.10
2018-08-03T05:34:11.233Z,57.20
2018-08-03T05:36:39.595Z,57.30
2018-08-03T05:39:09.859Z,57.50
2018-08-03T05:41:38.644Z,57.30
2018-08-03T05:44:07.200Z,57.40
2018-08-03T05:46:35.515Z,58.10
2018-08-03T05:49:03.967Z,57.40
2018-08-03T05:51:32.243Z,57.30
2018-08-03T05:54:00.612Z,57.40
2018-08-03T05:56:29.199Z,57.50
2018-08-03T05:58:57.525Z,57.50
2018-08-03T06:03:54.399Z,57.60
2018-08-03T06:06:22.780Z,57.70
2018-08-03T06:08:51.122Z,57.70
2018-08-03T06:11:19.401Z,57.60
2018-08-03T06:13:47.698Z,57.50
2018-08-03T06:18:44.091Z,57.50
2018-08-03T06:21:12.396Z,57.50
2018-08-03T06:23:40.679Z,57.60
2018-08-03T06:26:09.039Z,57.50
2018-08-03T06:28:37.367Z,57.50
2018-08-03T06:31:05.724Z,57.60
2018-08-03T06:33:34.020Z,57.70
2018-08-03T06:36:02.358Z,57.70
2018-08-03T06:38:30.650Z,57.60
2018-08-03T06:43:27.007Z,58.00
2018-08-03T06:45:55.303Z,57.60
2018-08-03T06:48:23.606Z,57.60
2018-08-03T06:50:51.917Z,57.60
2018-08-03T06:53:20.248Z,57.60
2018-08-03T06:55:48.536Z,57.50
2018-08-03T06:58:16.942Z,57.50
2018-08-03T07:00:45.308Z,57.60
2018-08-03T07:03:13.569Z,57.50
2018-08-03T07:05:41.889Z,57.50
2018-08-03T07:08:10.288Z,57.40
2018-08-03T07:10:38.570Z,57.50
2018-08-03T07:15:34.925Z,57.40
2018-08-03T07:18:03.293Z,57.40
2018-08-03T07:22:59.794Z,57.40
2018-08-03T07:25:28.146Z,57.50
2018-08-03T07:27:56.528Z,57.20
2018-08-03T07:30:24.808Z,57.40
2018-08-03T07:32:53.114Z,57.30
2018-08-03T07:35:21.439Z,57.80
2018-08-03T07:37:49.767Z,57.20
2018-08-03T07:40:18.071Z,57.20
2018-08-03T07:42:46.560Z,57.20
2018-08-03T07:45:15.122Z,57.20
2018-08-03T07:47:43.389Z,57.30
2018-08-03T07:50:11.692Z,57.30
2018-08-03T07:52:39.982Z,57.20
2018-08-03T07:57:36.350Z,57.30
2018-08-03T08:00:05.694Z,57.20
2018-08-03T08:02:33.957Z,57.30
2018-08-03T08:05:02.251Z,57.30
2018-08-03T08:07:30.551Z,57.20
2018-08-03T08:09:58.841Z,57.20
2018-08-03T08:12:27.114Z,57.10
2018-08-03T08:17:23.446Z,57.00
2018-08-03T08:19:51.742Z,57.50
2018-08-03T08:22:20.032Z,56.80
2018-08-03T08:24:48.319Z,57.00
2018-08-03T08:27:16.626Z,57.00
2018-08-03T08:29:44.927Z,56.90
2018-08-03T08:32:13.224Z,56.90
2018-08-03T08:34:41.666Z,56.90
2018-08-03T08:37:10.145Z,56.80
2018-08-03T08:42:06.936Z,56.70
2018-08-03T08:47:03.340Z,56.70
2018-08-03T08:49:31.721Z,56.60
2018-08-03T08:52:00.021Z,56.50
2018-08-03T08:54:28.330Z,56.60
2018-08-03T08:56:56.888Z,56.70
2018-08-03T09:01:53.840Z,56.70
2018-08-03T09:04:22.751Z,56.30
2018-08-03T09:06:51.121Z,56.60
2018-08-03T09:09:19.439Z,57.40
2018-08-03T09:11:47.815Z,56.50
2018-08-03T09:14:16.134Z,56.80
2018-08-03T09:16:44.423Z,56.60
2018-08-03T09:19:12.722Z,56.40
2018-08-03T09:21:41.069Z,56.40
2018-08-03T09:24:09.357Z,56.60
2018-08-03T09:26:37.654Z,56.20
2018-08-03T09:29:05.968Z,56.10
2018-08-03T09:31:34.243Z,56.30
2018-08-03T09:34:02.543Z,56.20
2018-08-03T09:36:30.918Z,56.10
2018-08-03T09:41:27.280Z,55.90
2018-08-03T09:43:55.610Z,56.10
2018-08-03T09:46:23.922Z,55.90
2018-08-03T09:48:52.953Z,55.90
2018-08-03T09:51:21.246Z,55.90
2018-08-03T09:53:49.664Z,56.00
2018-08-03T09:56:17.967Z,55.90
2018-08-03T09:58:46.339Z,55.80
2018-08-03T10:01:14.643Z,55.90
2018-08-03T10:03:43.407Z,55.70
2018-08-03T10:06:12.611Z,55.60
2018-08-03T10:08:40.934Z,55.70
2018-08-03T10:11:09.766Z,55.50
2018-08-03T10:13:38.084Z,55.50
2018-08-03T10:18:34.430Z,55.30
2018-08-03T10:23:30.764Z,55.30
2018-08-03T10:25:59.048Z,55.20
2018-08-03T10:28:27.423Z,55.20
2018-08-03T10:30:55.711Z,55.20
2018-08-03T10:33:24.070Z,55.20
2018-08-03T10:35:52.711Z,55.00
2018-08-03T10:38:20.985Z,55.00
2018-08-03T10:40:49.294Z,55.00
2018-08-03T10:43:17.602Z,55.10
2018-08-03T10:45:45.922Z,55.20
2018-08-03T10:48:14.202Z,55.70
2018-08-03T10:50:42.511Z,55.20
2018-08-03T10:53:10.807Z,55.30
2018-08-03T10:55:39.142Z,55.30
2018-08-03T10:58:07.494Z,55.30
2018-08-03T11:00:35.919Z,55.30
2018-08-03T11:03:04.259Z,55.40
2018-08-03T11:05:32.579Z,55.30
2018-08-03T11:08:00.899Z,55.30
2018-08-03T11:10:29.194Z,55.30
2018-08-03T11:12:57.479Z,55.40
2018-08-03T11:15:25.762Z,55.50
2018-08-03T11:17:54.062Z,55.70
2018-08-03T11:20:22.382Z,55.40
2018-08-03T11:22:50.686Z,55.20
2018-08-03T11:25:19.003Z,55.40
2018-08-03T11:27:47.323Z,55.40
2018-08-03T11:30:15.613Z,55.90
2018-08-03T11:32:43.961Z,55.50
2018-08-03T11:35:12.207Z,55.60
2018-08-03T11:37:40.533Z,55.50
2018-08-03T11:40:09.245Z,55.40
2018-08-03T11:42:37.627Z,55.30
2018-08-03T11:45:07.745Z,55.00
2018-08-03T11:47:36.055Z,55.40
2018-08-03T11:50:05.436Z,55.60
2018-08-03T11:52:33.730Z,55.80
2018-08-03T11:55:02.056Z,55.80
2018-08-03T11:57:30.450Z,55.90
2018-08-03T11:59:58.817Z,56.20
2018-08-03T12:02:27.109Z,56.60
2018-08-03T12:04:55.395Z,56.60
2018-08-03T12:07:23.714Z,56.60
2018-08-03T12:09:52.064Z,56.70
2018-08-03T12:12:20.385Z,56.50
2018-08-03T12:14:48.768Z,56.30
2018-08-03T12:17:17.164Z,56.40
2018-08-03T12:19:45.509Z,56.70
2018-08-03T12:24:41.964Z,56.60
2018-08-03T12:27:10.343Z,56.60
2018-08-03T12:29:38.887Z,56.40
2018-08-03T12:32:07.512Z,56.40
2018-08-03T12:34:35.936Z,56.40
2018-08-03T12:37:04.239Z,56.30
2018-08-03T12:39:32.543Z,56.50
2018-08-03T12:42:00.945Z,56.40
2018-08-03T12:44:29.243Z,56.30
2018-08-03T12:46:57.655Z,56.30
2018-08-03T12:49:30.170Z,56.40
2018-08-03T12:51:58.483Z,56.20
2018-08-03T12:54:26.766Z,56.20
2018-08-03T12:56:55.073Z,56.60
2018-08-03T12:59:23.382Z,56.30
2018-08-03T13:01:51.704Z,56.90
2018-08-03T13:04:20.078Z,56.30
2018-08-03T13:06:49.426Z,56.20
2018-08-03T13:09:17.770Z,56.30
2018-08-03T13:11:46.116Z,56.10
2018-08-03T13:14:14.435Z,56.00
2018-08-03T13:19:10.822Z,56.00
2018-08-03T13:21:40.400Z,55.90
2018-08-03T13:24:08.703Z,55.80
2018-08-03T13:26:37.007Z,55.90
2018-08-03T13:29:05.533Z,55.70
2018-08-03T13:31:33.831Z,55.80
2018-08-03T13:34:02.144Z,56.10
2018-08-03T13:36:31.248Z,55.90
2018-08-03T13:38:59.588Z,55.80
2018-08-03T13:41:27.830Z,55.60
2018-08-03T13:43:56.127Z,55.60
2018-08-03T13:46:24.421Z,55.20
2018-08-03T13:48:52.878Z,56.30
2018-08-03T13:51:21.183Z,56.20
2018-08-03T13:53:49.619Z,56.30
2018-08-03T13:56:18.516Z,56.70
2018-08-03T13:58:47.406Z,56.40
2018-08-03T14:03:49.458Z,57.30
2018-08-03T14:06:17.800Z,56.50
2018-08-03T14:08:47.161Z,56.60
2018-08-03T14:11:35.311Z,56.60
2018-08-03T14:14:23.008Z,56.40
2018-08-03T14:17:09.036Z,56.70
2018-08-03T14:19:42.047Z,56.10
2018-08-03T14:22:10.423Z,56.00
2018-08-03T14:24:38.760Z,55.90
2018-08-03T14:27:07.232Z,55.60
2018-08-03T14:29:35.542Z,55.60
2018-08-03T14:32:04.591Z,55.60
2018-08-03T14:34:32.904Z,55.60
2018-08-03T14:37:01.289Z,55.80
2018-08-03T14:39:29.658Z,55.80
2018-08-03T14:44:26.138Z,55.90
2018-08-03T14:46:54.439Z,55.80
2018-08-03T14:49:22.835Z,55.80
2018-08-03T14:51:51.134Z,55.60
2018-08-03T14:54:19.643Z,55.70
2018-08-03T14:56:47.965Z,55.70
2018-08-03T14:59:16.267Z,55.50
2018-08-03T15:01:44.572Z,55.40
2018-08-03T15:04:13.003Z,55.10
2018-08-03T15:06:41.389Z,55.30
2018-08-03T15:09:11.322Z,55.30
2018-08-03T15:11:39.782Z,55.20
2018-08-03T15:14:08.164Z,55.10
2018-08-03T15:16:36.642Z,55.00
2018-08-03T15:19:05.050Z,55.00
2018-08-03T15:21:33.388Z,54.90
2018-08-03T15:24:01.710Z,54.90
2018-08-03T15:26:30.044Z,54.80
2018-08-03T15:28:58.404Z,54.60
2018-08-03T15:33:54.765Z,54.80
2018-08-03T15:36:23.067Z,54.80
2018-08-03T15:38:51.387Z,54.80
2018-08-03T15:41:19.707Z,54.70
2018-08-03T15:43:47.998Z,54.70
2018-08-03T15:46:16.364Z,54.70
2018-08-03T15:48:44.735Z,54.80
2018-08-03T15:51:13.075Z,54.70
2018-08-03T15:53:41.420Z,54.60
2018-08-03T15:56:09.743Z,54.30
2018-08-03T15:58:38.119Z,54.20
2018-08-03T16:01:06.513Z,54.30
2018-08-03T16:03:34.987Z,53.80
2018-08-03T16:06:03.439Z,53.80
2018-08-03T16:08:31.809Z,53.70
2018-08-03T16:11:00.273Z,53.80
2018-08-03T16:13:28.586Z,53.80
2018-08-03T16:15:57.022Z,53.70
2018-08-03T16:18:25.361Z,53.50
2018-08-03T16:20:53.753Z,53.50
2018-08-03T16:23:22.088Z,52.80
2018-08-03T16:25:50.417Z,53.10
2018-08-03T16:28:18.788Z,53.40
2018-08-03T16:30:47.172Z,53.50
2018-08-03T16:33:15.536Z,53.80
2018-08-03T16:35:44.026Z,53.70
2018-08-03T16:38:12.446Z,53.80
2018-08-03T16:40:40.810Z,53.70
2018-08-03T16:43:09.149Z,53.80
2018-08-03T16:45:37.451Z,53.80
2018-08-03T16:48:06.037Z,53.90
2018-08-03T16:50:34.370Z,53.80
2018-08-03T16:53:02.716Z,53.90
2018-08-03T16:55:31.149Z,54.90
2018-08-03T16:57:59.492Z,54.50
2018-08-03T17:02:55.879Z,55.30
2018-08-03T17:05:24.179Z,55.40
2018-08-03T17:07:52.516Z,55.20
2018-08-03T17:10:20.989Z,55.10
2018-08-03T17:12:49.840Z,54.70
2018-08-03T17:15:18.545Z,54.80
2018-08-03T17:17:47.323Z,54.50
2018-08-03T17:20:15.675Z,54.70
2018-08-03T17:22:44.311Z,54.50
2018-08-03T17:25:13.038Z,54.70
2018-08-03T17:27:41.798Z,54.70
2018-08-03T17:30:11.174Z,54.80
2018-08-03T17:32:39.858Z,54.80
2018-08-03T17:37:36.391Z,54.80
2018-08-03T17:40:05.386Z,55.60
2018-08-03T17:42:34.388Z,54.90
2018-08-03T17:45:03.231Z,55.00
2018-08-03T17:47:31.835Z,55.10
2018-08-03T17:50:00.234Z,55.00
2018-08-03T17:52:28.775Z,54.90
2018-08-03T17:54:57.961Z,54.80
2018-08-03T17:57:26.950Z,54.60
2018-08-03T17:59:55.686Z,54.50
2018-08-03T18:02:24.262Z,54.40
2018-08-03T18:04:52.947Z,54.50
2018-08-03T18:07:22.090Z,54.50
2018-08-03T18:12:19.014Z,54.70
2018-08-03T18:14:47.372Z,54.80
2018-08-03T18:17:15.873Z,54.90
2018-08-03T18:19:44.702Z,54.90
2018-08-03T18:24:41.963Z,55.10
2018-08-03T18:27:10.707Z,54.90
2018-08-03T18:29:39.098Z,55.10
2018-08-03T18:32:08.392Z,54.40
2018-08-03T18:34:37.347Z,54.10
2018-08-03T18:37:06.058Z,54.10
2018-08-03T18:39:34.432Z,54.10
2018-08-03T18:42:03.294Z,53.80
2018-08-03T18:44:31.613Z,53.30
2018-08-03T18:46:59.907Z,53.10
2018-08-03T18:49:28.239Z,53.20
2018-08-03T18:51:56.543Z,53.10
2018-08-03T18:54:25.075Z,52.90
2018-08-03T18:56:53.476Z,52.80
2018-08-03T18:59:22.638Z,52.80
2018-08-03T19:01:51.506Z,53.10
2018-08-03T19:04:19.815Z,53.00
2018-08-03T19:06:48.517Z,53.30
2018-08-03T19:09:16.894Z,53.30
2018-08-03T19:11:45.365Z,53.30
2018-08-03T19:14:13.794Z,53.30
2018-08-03T19:16:42.276Z,53.40
2018-08-03T19:19:10.628Z,53.30
2018-08-03T19:21:39.028Z,53.50
2018-08-03T19:24:07.386Z,53.50
2018-08-03T19:26:35.692Z,53.80
2018-08-03T19:29:04.004Z,53.10
2018-08-03T19:31:32.694Z,53.40
2018-08-03T19:34:01.102Z,53.30
2018-08-03T19:36:29.535Z,53.40
2018-08-03T19:38:57.912Z,53.60
2018-08-03T19:41:26.706Z,53.70
2018-08-03T19:43:55.157Z,53.70
2018-08-03T19:46:23.594Z,53.70
2018-08-03T19:48:51.991Z,53.70
2018-08-03T19:51:20.314Z,53.70
2018-08-03T19:53:48.721Z,53.70
2018-08-03T19:56:17.044Z,53.70
2018-08-03T19:58:45.516Z,53.70
2018-08-03T20:01:13.949Z,53.80
2018-08-03T20:03:42.372Z,54.10
2018-08-03T20:06:10.853Z,54.20
2018-08-03T20:08:39.330Z,54.10
2018-08-03T20:11:07.715Z,54.40
2018-08-03T20:13:36.110Z,55.20
2018-08-03T20:16:04.423Z,54.50
2018-08-03T20:18:32.769Z,54.50
2018-08-03T20:21:01.129Z,54.90
2018-08-03T20:23:29.596Z,54.80
2018-08-03T20:25:58.024Z,54.80
2018-08-03T20:28:26.392Z,55.20
2018-08-03T20:30:55.129Z,55.00
2018-08-03T20:35:52.065Z,55.10
2018-08-03T20:38:20.915Z,54.90
2018-08-03T20:40:49.398Z,54.90
2018-08-03T20:43:17.847Z,54.50
2018-08-03T20:45:46.316Z,54.90
2018-08-03T20:48:18.282Z,55.00
2018-08-03T20:50:46.860Z,54.50
2018-08-03T20:53:15.191Z,54.30
2018-08-03T20:55:46.592Z,55.40
2018-08-03T20:58:14.882Z,54.40
2018-08-03T21:00:43.317Z,54.30
2018-08-03T21:03:11.631Z,54.50
2018-08-03T21:05:40.015Z,54.40
2018-08-03T21:08:08.496Z,55.00
2018-08-03T21:10:36.883Z,55.30
2018-08-03T21:13:05.332Z,55.90
2018-08-03T21:15:33.734Z,56.30
2018-08-03T21:18:02.287Z,56.70
2018-08-03T21:20:30.710Z,57.50
2018-08-03T21:22:59.142Z,58.30
2018-08-03T21:25:27.529Z,58.70
2018-08-03T21:27:55.977Z,59.30
2018-08-03T21:30:24.377Z,59.50
2018-08-03T21:32:52.764Z,59.60
2018-08-03T21:35:21.382Z,59.70
2018-08-03T21:37:49.878Z,60.00
2018-08-03T21:40:18.267Z,59.80
2018-08-03T21:42:46.642Z,60.00
2018-08-03T21:45:15.020Z,59.70
2018-08-03T21:47:43.548Z,59.60
2018-08-03T21:50:11.888Z,59.60
2018-08-03T21:52:40.301Z,59.40
2018-08-03T21:55:08.659Z,59.70
2018-08-03T21:57:37.103Z,59.50
2018-08-03T22:00:08.541Z,59.60
2018-08-03T22:02:37.096Z,59.30
2018-08-03T22:05:05.581Z,59.00
2018-08-03T22:07:34.003Z,58.70
2018-08-03T22:10:02.348Z,58.60
2018-08-03T22:12:30.681Z,58.90
2018-08-03T22:14:59.049Z,59.40
2018-08-03T22:17:27.444Z,58.30
2018-08-03T22:19:55.966Z,58.50
2018-08-03T22:22:24.314Z,58.70
2018-08-03T22:24:54.531Z,58.50
2018-08-03T22:27:22.842Z,58.30
2018-08-03T22:29:51.182Z,58.30
2018-08-03T22:32:19.500Z,58.40
2018-08-03T22:34:47.974Z,58.50
2018-08-03T22:37:16.246Z,58.80
2018-08-03T22:39:44.545Z,58.40
2018-08-03T22:42:12.826Z,58.50
2018-08-03T22:44:41.130Z,58.40
2018-08-03T22:47:09.417Z,58.30
2018-08-03T22:49:37.716Z,58.30
2018-08-03T22:52:06.096Z,58.30
2018-08-03T22:54:34.395Z,58.20
2018-08-03T22:57:02.702Z,58.20
2018-08-03T22:59:31.157Z,57.90
2018-08-03T23:01:59.477Z,58.00
2018-08-03T23:04:27.901Z,57.90
2018-08-03T23:06:56.204Z,58.00
2018-08-03T23:09:24.605Z,58.40
2018-08-03T23:11:53.064Z,58.40
2018-08-03T23:14:21.349Z,58.40
2018-08-03T23:16:49.655Z,58.40
2018-08-03T23:19:17.964Z,58.30
2018-08-03T23:21:46.263Z,58.50
2018-08-03T23:24:14.548Z,58.30
2018-08-03T23:26:42.845Z,59.00
2018-08-03T23:29:11.138Z,58.60
2018-08-03T23:31:39.572Z,58.60
2018-08-03T23:34:07.850Z,58.90
2018-08-03T23:36:36.140Z,58.80
2018-08-03T23:39:07.151Z,59.60
2018-08-03T23:41:35.537Z,59.00
2018-08-03T23:44:04.185Z,58.60
2018-08-03T23:46:32.598Z,58.70
2018-08-03T23:49:00.896Z,58.70
2018-08-03T23:51:29.197Z,58.60
2018-08-03T23:53:57.525Z,58.60
2018-08-03T23:56:25.840Z,58.60
2018-08-03T23:58:54.209Z,58.70
